sensor_id;sensor_type;location;lat;lon;timestamp;pressure;altitude;pressure_sealevel;temperature;humidity
67109;BME280;54027;50.786;7.058;2022-12-04T00:01:41;101238.34;;;2.84;80.45
67109;BME280;54027;50.786;7.058;2022-12-04T00:04:08;101234.03;;;2.83;80.73
67109;BME280;54027;50.786;7.058;2022-12-04T00:06:33;101230.63;;;2.82;80.17
67109;BME280;54027;50.786;7.058;2022-12-04T00:08:59;101229.81;;;2.83;80.50
67109;BME280;54027;50.786;7.058;2022-12-04T00:11:27;101232.28;;;2.82;80.84
67109;BME280;54027;50.786;7.058;2022-12-04T00:13:54;101224.63;;;2.82;81.69
67109;BME280;54027;50.786;7.058;2022-12-04T00:16:22;101230.69;;;2.84;81.41
67109;BME280;54027;50.786;7.058;2022-12-04T00:18:49;101236.69;;;2.86;80.92
67109;BME280;54027;50.786;7.058;2022-12-04T00:21:16;101228.22;;;2.87;80.57
67109;BME280;54027;50.786;7.058;2022-12-04T00:23:42;101231.59;;;2.87;80.94
67109;BME280;54027;50.786;7.058;2022-12-04T00:26:20;101229.13;;;2.89;80.41
67109;BME280;54027;50.786;7.058;2022-12-04T00:28:47;101227.47;;;2.91;80.25
67109;BME280;54027;50.786;7.058;2022-12-04T00:31:15;101220.69;;;2.91;80.10
67109;BME280;54027;50.786;7.058;2022-12-04T00:33:41;101221.66;;;2.95;79.65
67109;BME280;54027;50.786;7.058;2022-12-04T00:36:10;101216.56;;;2.96;78.75
67109;BME280;54027;50.786;7.058;2022-12-04T00:38:37;101221.81;;;3.01;78.43
67109;BME280;54027;50.786;7.058;2022-12-04T00:41:03;101217.59;;;3.02;78.63
67109;BME280;54027;50.786;7.058;2022-12-04T00:43:29;101220.94;;;3.01;77.94
67109;BME280;54027;50.786;7.058;2022-12-04T00:45:55;101215.03;;;3.02;78.41
67109;BME280;54027;50.786;7.058;2022-12-04T00:48:21;101216.66;;;2.99;79.18
67109;BME280;54027;50.786;7.058;2022-12-04T00:50:47;101215.72;;;2.96;80.02
67109;BME280;54027;50.786;7.058;2022-12-04T00:53:12;101212.22;;;2.92;80.45
67109;BME280;54027;50.786;7.058;2022-12-04T00:55:41;101207.91;;;2.91;80.75
67109;BME280;54027;50.786;7.058;2022-12-04T00:58:07;101207.88;;;2.90;79.84
67109;BME280;54027;50.786;7.058;2022-12-04T01:00:34;101207.78;;;2.87;80.05
67109;BME280;54027;50.786;7.058;2022-12-04T01:03:00;101209.41;;;2.85;79.46
67109;BME280;54027;50.786;7.058;2022-12-04T01:05:25;101205.09;;;2.82;79.41
67109;BME280;54027;50.786;7.058;2022-12-04T01:07:52;101213.59;;;2.81;80.26
67109;BME280;54027;50.786;7.058;2022-12-04T01:10:18;101213.59;;;2.81;80.02
67109;BME280;54027;50.786;7.058;2022-12-04T01:12:43;101215.22;;;2.79;80.32
67109;BME280;54027;50.786;7.058;2022-12-04T01:15:09;101213.44;;;2.77;79.95
67109;BME280;54027;50.786;7.058;2022-12-04T01:17:34;101205.00;;;2.79;79.46
67109;BME280;54027;50.786;7.058;2022-12-04T01:20:00;101205.78;;;2.77;79.87
67109;BME280;54027;50.786;7.058;2022-12-04T01:22:25;101205.78;;;2.77;79.29
67109;BME280;54027;50.786;7.058;2022-12-04T01:24:54;101210.88;;;2.77;79.77
67109;BME280;54027;50.786;7.058;2022-12-04T01:27:20;101211.75;;;2.77;79.02
67109;BME280;54027;50.786;7.058;2022-12-04T01:29:45;101212.56;;;2.76;79.13
67109;BME280;54027;50.786;7.058;2022-12-04T01:32:11;101219.34;;;2.76;79.07
67109;BME280;54027;50.786;7.058;2022-12-04T01:34:36;101210.84;;;2.75;79.61
67109;BME280;54027;50.786;7.058;2022-12-04T01:37:01;101206.56;;;2.74;78.32
67109;BME280;54027;50.786;7.058;2022-12-04T01:39:27;101198.94;;;2.76;77.97
67109;BME280;54027;50.786;7.058;2022-12-04T01:41:52;101202.34;;;2.76;77.39
67109;BME280;54027;50.786;7.058;2022-12-04T01:44:20;101203.19;;;2.75;78.03
67109;BME280;54027;50.786;7.058;2022-12-04T01:49:19;101201.47;;;2.76;77.02
67109;BME280;54027;50.786;7.058;2022-12-04T01:51:50;101191.94;;;2.69;75.76
67109;BME280;54027;50.786;7.058;2022-12-04T01:54:32;101187.63;;;2.68;76.56
67109;BME280;54027;50.786;7.058;2022-12-04T01:57:03;101199.53;;;2.67;76.94
67109;BME280;54027;50.786;7.058;2022-12-04T01:59:35;101205.47;;;2.66;76.71
67109;BME280;54027;50.786;7.058;2022-12-04T02:02:06;101202.06;;;2.67;76.03
67109;BME280;54027;50.786;7.058;2022-12-04T02:04:33;101200.41;;;2.68;76.52
67109;BME280;54027;50.786;7.058;2022-12-04T02:06:59;101207.19;;;2.67;77.14
67109;BME280;54027;50.786;7.058;2022-12-04T02:09:25;101208.03;;;2.66;76.65
67109;BME280;54027;50.786;7.058;2022-12-04T02:14:54;101205.50;;;2.68;77.50
67109;BME280;54027;50.786;7.058;2022-12-04T02:17:31;101195.28;;;2.68;77.00
67109;BME280;54027;50.786;7.058;2022-12-04T02:23:43;101202.91;;;2.66;77.55
67109;BME280;54027;50.786;7.058;2022-12-04T02:26:04;101202.06;;;2.67;77.51
67109;BME280;54027;50.786;7.058;2022-12-04T02:31:14;101211.41;;;2.67;78.29
67109;BME280;54027;50.786;7.058;2022-12-04T02:34:09;101213.94;;;2.65;77.10
67109;BME280;54027;50.786;7.058;2022-12-04T02:36:46;101207.97;;;2.65;77.23
67109;BME280;54027;50.786;7.058;2022-12-04T02:39:21;101201.84;;;2.60;76.09
67109;BME280;54027;50.786;7.058;2022-12-04T02:42:02;101207.69;;;2.56;76.64
67109;BME280;54027;50.786;7.058;2022-12-04T02:44:34;101205.97;;;2.55;76.60
67109;BME280;54027;50.786;7.058;2022-12-04T02:47:05;101216.97;;;2.54;77.02
67109;BME280;54027;50.786;7.058;2022-12-04T02:49:34;101217.00;;;2.55;77.37
67109;BME280;54027;50.786;7.058;2022-12-04T02:52:02;101221.31;;;2.56;77.05
67109;BME280;54027;50.786;7.058;2022-12-04T02:54:38;101213.63;;;2.55;76.86
67109;BME280;54027;50.786;7.058;2022-12-04T02:57:07;101221.28;;;2.55;77.55
67109;BME280;54027;50.786;7.058;2022-12-04T02:59:44;101214.44;;;2.54;77.64
67109;BME280;54027;50.786;7.058;2022-12-04T03:04:59;101214.38;;;2.52;77.89
67109;BME280;54027;50.786;7.058;2022-12-04T03:07:33;101208.34;;;2.50;77.06
67109;BME280;54027;50.786;7.058;2022-12-04T03:10:05;101208.34;;;2.50;77.05
67109;BME280;54027;50.786;7.058;2022-12-04T03:12:44;101210.78;;;2.46;76.92
67109;BME280;54027;50.786;7.058;2022-12-04T03:15:25;101208.97;;;2.43;76.54
67109;BME280;54027;50.786;7.058;2022-12-04T03:18:04;101211.50;;;2.41;76.39
67109;BME280;54027;50.786;7.058;2022-12-04T03:20:33;101207.97;;;2.38;76.26
67109;BME280;54027;50.786;7.058;2022-12-04T03:23:08;101201.13;;;2.37;76.87
67109;BME280;54027;50.786;7.058;2022-12-04T03:25:44;101210.53;;;2.38;77.28
67109;BME280;54027;50.786;7.058;2022-12-04T03:28:21;101214.75;;;2.37;77.11
67109;BME280;54027;50.786;7.058;2022-12-04T03:30:56;101210.59;;;2.39;76.37
67109;BME280;54027;50.786;7.058;2022-12-04T03:33:30;101218.25;;;2.39;76.59
67109;BME280;54027;50.786;7.058;2022-12-04T03:36:04;101220.72;;;2.38;76.83
67109;BME280;54027;50.786;7.058;2022-12-04T03:39:07;101214.81;;;2.39;76.82
67109;BME280;54027;50.786;7.058;2022-12-04T03:41:58;101219.91;;;2.39;76.60
67109;BME280;54027;50.786;7.058;2022-12-04T03:46:58;101214.72;;;2.36;76.27
67109;BME280;54027;50.786;7.058;2022-12-04T03:49:42;101216.34;;;2.34;76.60
67109;BME280;54027;50.786;7.058;2022-12-04T03:55:05;101217.19;;;2.33;76.29
67109;BME280;54027;50.786;7.058;2022-12-04T03:57:35;101212.88;;;2.32;76.34
67109;BME280;54027;50.786;7.058;2022-12-04T04:00:14;101208.56;;;2.29;76.36
67109;BME280;54027;50.786;7.058;2022-12-04T04:05:19;101218.72;;;2.28;76.34
67109;BME280;54027;50.786;7.058;2022-12-04T04:07:47;101212.75;;;2.27;76.63
67109;BME280;54027;50.786;7.058;2022-12-04T04:10:18;101218.75;;;2.29;76.39
67109;BME280;54027;50.786;7.058;2022-12-04T04:12:53;101216.91;;;2.25;76.36
67109;BME280;54027;50.786;7.058;2022-12-04T04:15:47;101215.22;;;2.26;77.55
67109;BME280;54027;50.786;7.058;2022-12-04T04:18:34;101216.16;;;2.28;77.42
67109;BME280;54027;50.786;7.058;2022-12-04T04:21:22;101213.72;;;2.31;77.35
67109;BME280;54027;50.786;7.058;2022-12-04T04:24:11;101213.66;;;2.29;77.42
67109;BME280;54027;50.786;7.058;2022-12-04T04:26:47;101206.88;;;2.30;77.46
67109;BME280;54027;50.786;7.058;2022-12-04T04:29:13;101201.78;;;2.30;77.22
67109;BME280;54027;50.786;7.058;2022-12-04T04:42:00;101193.06;;;2.23;77.23
67109;BME280;54027;50.786;7.058;2022-12-04T04:47:00;101206.63;;;2.22;76.77
67109;BME280;54027;50.786;7.058;2022-12-04T04:49:31;101210.03;;;2.23;77.18
67109;BME280;54027;50.786;7.058;2022-12-04T04:52:00;101202.28;;;2.20;77.20
67109;BME280;54027;50.786;7.058;2022-12-04T04:54:27;101200.59;;;2.20;77.76
67109;BME280;54027;50.786;7.058;2022-12-04T04:56:53;101195.31;;;2.14;76.42
67109;BME280;54027;50.786;7.058;2022-12-04T04:59:19;101188.44;;;2.12;76.00
67109;BME280;54027;50.786;7.058;2022-12-04T05:01:44;101190.91;;;2.10;76.39
67109;BME280;54027;50.786;7.058;2022-12-04T05:04:11;101190.91;;;2.10;77.06
67109;BME280;54027;50.786;7.058;2022-12-04T05:06:37;101189.88;;;2.04;76.92
67109;BME280;54027;50.786;7.058;2022-12-04T05:09:02;101191.56;;;2.03;76.89
67109;BME280;54027;50.786;7.058;2022-12-04T05:11:28;101196.66;;;2.03;76.89
67109;BME280;54027;50.786;7.058;2022-12-04T05:13:53;101196.66;;;2.03;76.77
67109;BME280;54027;50.786;7.058;2022-12-04T05:16:19;101205.09;;;2.02;77.72
67109;BME280;54027;50.786;7.058;2022-12-04T05:18:44;101203.34;;;2.00;77.55
67109;BME280;54027;50.786;7.058;2022-12-04T05:21:31;101199.81;;;1.96;77.24
67109;BME280;54027;50.786;7.058;2022-12-04T05:23:57;101193.81;;;1.94;77.38
67109;BME280;54027;50.786;7.058;2022-12-04T05:26:23;101194.69;;;1.95;77.12
67109;BME280;54027;50.786;7.058;2022-12-04T05:28:48;101194.69;;;1.95;77.58
67109;BME280;54027;50.786;7.058;2022-12-04T05:31:13;101198.00;;;1.92;77.12
67109;BME280;54027;50.786;7.058;2022-12-04T05:33:39;101197.91;;;1.89;77.67
67109;BME280;54027;50.786;7.058;2022-12-04T05:36:06;101196.19;;;1.90;78.34
67109;BME280;54027;50.786;7.058;2022-12-04T05:38:33;101195.34;;;1.89;78.10
67109;BME280;54027;50.786;7.058;2022-12-04T05:40:59;101197.81;;;1.88;78.25
67109;BME280;54027;50.786;7.058;2022-12-04T05:43:25;101196.91;;;1.85;77.68
67109;BME280;54027;50.786;7.058;2022-12-04T05:45:50;101205.34;;;1.83;77.84
67109;BME280;54027;50.786;7.058;2022-12-04T05:48:16;101194.19;;;1.81;77.79
67109;BME280;54027;50.786;7.058;2022-12-04T05:50:41;101192.38;;;1.77;77.33
67109;BME280;54027;50.786;7.058;2022-12-04T05:53:07;101190.63;;;1.76;77.67
67109;BME280;54027;50.786;7.058;2022-12-04T05:55:32;101189.84;;;1.77;77.88
67109;BME280;54027;50.786;7.058;2022-12-04T05:57:57;101191.50;;;1.76;77.98
67109;BME280;54027;50.786;7.058;2022-12-04T06:00:23;101198.34;;;1.77;77.71
67109;BME280;54027;50.786;7.058;2022-12-04T06:02:48;101193.25;;;1.77;77.66
67109;BME280;54027;50.786;7.058;2022-12-04T06:05:14;101195.69;;;1.74;78.41
67109;BME280;54027;50.786;7.058;2022-12-04T06:07:39;101199.97;;;1.75;77.77
67109;BME280;54027;50.786;7.058;2022-12-04T06:10:05;101205.03;;;1.74;78.46
67109;BME280;54027;50.786;7.058;2022-12-04T06:12:31;101204.09;;;1.72;77.84
67109;BME280;54027;50.786;7.058;2022-12-04T06:14:56;101210.78;;;1.68;78.25
67109;BME280;54027;50.786;7.058;2022-12-04T06:17:21;101210.00;;;1.71;78.51
67109;BME280;54027;50.786;7.058;2022-12-04T06:19:50;101208.25;;;1.70;77.98
67109;BME280;54027;50.786;7.058;2022-12-04T06:22:17;101215.03;;;1.69;78.93
67109;BME280;54027;50.786;7.058;2022-12-04T06:24:42;101219.38;;;1.72;78.66
67109;BME280;54027;50.786;7.058;2022-12-04T06:27:08;101215.16;;;1.72;78.65
67109;BME280;54027;50.786;7.058;2022-12-04T06:29:33;101217.69;;;1.72;78.67
67109;BME280;54027;50.786;7.058;2022-12-04T06:31:58;101217.69;;;1.72;78.74
67109;BME280;54027;50.786;7.058;2022-12-04T06:34:24;101216.88;;;1.73;78.45
67109;BME280;54027;50.786;7.058;2022-12-04T06:36:49;101221.91;;;1.72;78.09
67109;BME280;54027;50.786;7.058;2022-12-04T06:39:15;101225.34;;;1.72;78.46
67109;BME280;54027;50.786;7.058;2022-12-04T06:41:40;101235.63;;;1.75;78.45
67109;BME280;54027;50.786;7.058;2022-12-04T06:44:05;101226.38;;;1.77;79.10
67109;BME280;54027;50.786;7.058;2022-12-04T06:46:32;101228.06;;;1.77;79.14
67109;BME280;54027;50.786;7.058;2022-12-04T06:48:59;101225.50;;;1.77;79.00
67109;BME280;54027;50.786;7.058;2022-12-04T06:51:35;101222.09;;;1.76;78.60
67109;BME280;54027;50.786;7.058;2022-12-04T06:54:02;101223.00;;;1.78;78.83
67109;BME280;54027;50.786;7.058;2022-12-04T06:56:30;101228.09;;;1.78;78.88
67109;BME280;54027;50.786;7.058;2022-12-04T06:58:59;101236.56;;;1.77;78.69
67109;BME280;54027;50.786;7.058;2022-12-04T07:01:27;101235.75;;;1.78;78.89
67109;BME280;54027;50.786;7.058;2022-12-04T07:03:55;101234.97;;;1.81;79.15
67109;BME280;54027;50.786;7.058;2022-12-04T07:06:23;101239.28;;;1.82;79.34
67109;BME280;54027;50.786;7.058;2022-12-04T07:08:51;101229.78;;;1.78;79.13
67109;BME280;54027;50.786;7.058;2022-12-04T07:11:17;101232.28;;;1.76;77.81
67109;BME280;54027;50.786;7.058;2022-12-04T07:13:43;101234.72;;;1.73;78.36
67109;BME280;54027;50.786;7.058;2022-12-04T07:16:11;101242.31;;;1.72;78.76
67109;BME280;54027;50.786;7.058;2022-12-04T07:18:37;101239.72;;;1.70;79.19
67109;BME280;54027;50.786;7.058;2022-12-04T07:21:07;101246.50;;;1.70;78.52
67109;BME280;54027;50.786;7.058;2022-12-04T07:23:33;101242.97;;;1.66;78.91
67109;BME280;54027;50.786;7.058;2022-12-04T07:26:06;101250.66;;;1.68;79.53
67109;BME280;54027;50.786;7.058;2022-12-04T07:28:32;101246.50;;;1.70;79.14
67109;BME280;54027;50.786;7.058;2022-12-04T07:31:01;101243.84;;;1.67;79.24
67109;BME280;54027;50.786;7.058;2022-12-04T07:33:27;101240.38;;;1.65;79.28
67109;BME280;54027;50.786;7.058;2022-12-04T07:35:56;101241.19;;;1.64;79.52
67109;BME280;54027;50.786;7.058;2022-12-04T07:38:22;101236.09;;;1.64;78.99
67109;BME280;54027;50.786;7.058;2022-12-04T07:40:48;101235.22;;;1.63;79.39
67109;BME280;54027;50.786;7.058;2022-12-04T07:43:13;101227.63;;;1.65;79.82
67109;BME280;54027;50.786;7.058;2022-12-04T07:45:38;101229.41;;;1.67;79.68
67109;BME280;54027;50.786;7.058;2022-12-04T07:48:04;101237.06;;;1.67;79.40
67109;BME280;54027;50.786;7.058;2022-12-04T07:50:29;101226.00;;;1.67;79.07
67109;BME280;54027;50.786;7.058;2022-12-04T07:52:55;101237.94;;;1.68;79.71
67109;BME280;54027;50.786;7.058;2022-12-04T07:55:20;101236.28;;;1.70;79.79
67109;BME280;54027;50.786;7.058;2022-12-04T07:57:45;101240.53;;;1.69;79.71
67109;BME280;54027;50.786;7.058;2022-12-04T08:00:11;101238.84;;;1.70;79.30
67109;BME280;54027;50.786;7.058;2022-12-04T08:02:37;101241.41;;;1.70;79.97
67109;BME280;54027;50.786;7.058;2022-12-04T08:05:02;101238.75;;;1.67;79.56
67109;BME280;54027;50.786;7.058;2022-12-04T08:07:28;101235.38;;;1.68;79.55
67109;BME280;54027;50.786;7.058;2022-12-04T08:09:53;101236.25;;;1.68;79.70
67109;BME280;54027;50.786;7.058;2022-12-04T08:12:18;101244.00;;;1.71;79.36
67109;BME280;54027;50.786;7.058;2022-12-04T08:14:44;101240.72;;;1.75;79.64
67109;BME280;54027;50.786;7.058;2022-12-04T08:17:09;101242.41;;;1.75;79.86
67109;BME280;54027;50.786;7.058;2022-12-04T08:19:35;101243.38;;;1.78;79.42
67109;BME280;54027;50.786;7.058;2022-12-04T08:22:00;101237.53;;;1.81;79.53
67109;BME280;54027;50.786;7.058;2022-12-04T08:24:25;101239.97;;;1.78;78.60
67109;BME280;54027;50.786;7.058;2022-12-04T08:26:52;101237.50;;;1.79;79.02
67109;BME280;54027;50.786;7.058;2022-12-04T08:29:18;101239.97;;;1.78;78.95
67109;BME280;54027;50.786;7.058;2022-12-04T08:31:43;101243.50;;;1.81;79.36
67109;BME280;54027;50.786;7.058;2022-12-04T08:34:08;101241.06;;;1.84;79.07
67109;BME280;54027;50.786;7.058;2022-12-04T08:36:34;101237.69;;;1.85;78.53
67109;BME280;54027;50.786;7.058;2022-12-04T08:38:59;101232.63;;;1.87;79.46
67109;BME280;54027;50.786;7.058;2022-12-04T08:41:25;101234.38;;;1.88;78.37
67109;BME280;54027;50.786;7.058;2022-12-04T08:43:53;101237.72;;;1.87;78.46
67109;BME280;54027;50.786;7.058;2022-12-04T08:46:20;101231.84;;;1.88;78.26
67109;BME280;54027;50.786;7.058;2022-12-04T08:48:46;101236.22;;;1.92;78.62
67109;BME280;54027;50.786;7.058;2022-12-04T08:51:16;101226.13;;;1.95;78.26
67109;BME280;54027;50.786;7.058;2022-12-04T08:53:42;101227.03;;;1.97;78.09
67109;BME280;54027;50.786;7.058;2022-12-04T08:56:08;101235.81;;;2.05;78.14
67109;BME280;54027;50.786;7.058;2022-12-04T08:58:33;101240.97;;;2.07;78.59
67109;BME280;54027;50.786;7.058;2022-12-04T09:01:07;101246.97;;;2.09;78.03
67109;BME280;54027;50.786;7.058;2022-12-04T09:03:34;101258.84;;;2.08;78.58
67109;BME280;54027;50.786;7.058;2022-12-04T09:06:00;101251.16;;;2.07;78.17
67109;BME280;54027;50.786;7.058;2022-12-04T09:08:27;101261.38;;;2.07;78.05
67109;BME280;54027;50.786;7.058;2022-12-04T09:10:52;101256.28;;;2.07;78.21
67109;BME280;54027;50.786;7.058;2022-12-04T09:13:18;101257.84;;;2.03;78.36
67109;BME280;54027;50.786;7.058;2022-12-04T09:15:43;101258.66;;;2.02;78.26
67109;BME280;54027;50.786;7.058;2022-12-04T09:18:09;101262.94;;;2.03;78.22
67109;BME280;54027;50.786;7.058;2022-12-04T09:20:34;101263.81;;;2.04;79.14
67109;BME280;54027;50.786;7.058;2022-12-04T09:23:01;101262.25;;;2.07;78.76
67109;BME280;54027;50.786;7.058;2022-12-04T09:25:26;101263.16;;;2.09;78.89
67109;BME280;54027;50.786;7.058;2022-12-04T09:27:51;101262.41;;;2.13;78.93
67109;BME280;54027;50.786;7.058;2022-12-04T09:30:17;101265.03;;;2.15;78.50
67109;BME280;54027;50.786;7.058;2022-12-04T09:32:43;101268.28;;;2.11;77.99
67109;BME280;54027;50.786;7.058;2022-12-04T09:35:08;101256.47;;;2.13;77.50
67109;BME280;54027;50.786;7.058;2022-12-04T09:37:35;101261.50;;;2.11;77.73
67109;BME280;54027;50.786;7.058;2022-12-04T09:40:02;101257.31;;;2.13;77.59
67109;BME280;54027;50.786;7.058;2022-12-04T09:42:36;101256.56;;;2.16;77.68
67109;BME280;54027;50.786;7.058;2022-12-04T09:45:16;101255.84;;;2.20;77.95
67109;BME280;54027;50.786;7.058;2022-12-04T09:47:49;101260.34;;;2.27;78.55
67109;BME280;54027;50.786;7.058;2022-12-04T09:50:25;101255.44;;;2.33;77.88
67109;BME280;54027;50.786;7.058;2022-12-04T09:53:00;101245.22;;;2.33;77.20
67109;BME280;54027;50.786;7.058;2022-12-04T09:55:40;101247.78;;;2.33;77.56
67109;BME280;54027;50.786;7.058;2022-12-04T09:58:12;101252.16;;;2.37;77.64
67109;BME280;54027;50.786;7.058;2022-12-04T10:00:42;101251.44;;;2.41;77.59
67109;BME280;54027;50.786;7.058;2022-12-04T10:03:14;101252.34;;;2.43;77.11
67109;BME280;54027;50.786;7.058;2022-12-04T10:05:47;101243.78;;;2.41;77.06
67109;BME280;54027;50.786;7.058;2022-12-04T10:08:23;101249.88;;;2.46;77.58
67109;BME280;54027;50.786;7.058;2022-12-04T10:22:04;101223.19;;;2.62;76.96
67109;BME280;54027;50.786;7.058;2022-12-04T10:27:26;101230.94;;;2.65;77.08
67109;BME280;54027;50.786;7.058;2022-12-04T10:29:58;101220.88;;;2.69;77.27
67109;BME280;54027;50.786;7.058;2022-12-04T10:32:30;101217.63;;;2.75;76.86
67109;BME280;54027;50.786;7.058;2022-12-04T10:35:01;101219.34;;;2.76;76.45
67109;BME280;54027;50.786;7.058;2022-12-04T10:37:27;101215.88;;;2.72;76.10
67109;BME280;54027;50.786;7.058;2022-12-04T10:39:57;101206.41;;;2.70;76.54
67109;BME280;54027;50.786;7.058;2022-12-04T10:42:43;101204.78;;;2.72;77.13
67109;BME280;54027;50.786;7.058;2022-12-04T10:45:12;101198.72;;;2.68;76.47
67109;BME280;54027;50.786;7.058;2022-12-04T10:47:40;101199.50;;;2.66;76.73
67109;BME280;54027;50.786;7.058;2022-12-04T10:50:15;101195.16;;;2.63;77.25
67109;BME280;54027;50.786;7.058;2022-12-04T10:52:41;101190.19;;;2.68;77.18
67109;BME280;54027;50.786;7.058;2022-12-04T10:55:06;101181.66;;;2.67;76.91
67109;BME280;54027;50.786;7.058;2022-12-04T10:57:41;101189.47;;;2.72;76.50
67109;BME280;54027;50.786;7.058;2022-12-04T11:00:31;101187.91;;;2.77;77.37
67109;BME280;54027;50.786;7.058;2022-12-04T11:03:03;101183.69;;;2.77;76.83
67109;BME280;54027;50.786;7.058;2022-12-04T11:08:30;101182.97;;;2.81;77.14
67109;BME280;54027;50.786;7.058;2022-12-04T11:11:03;101172.06;;;2.87;76.66
67109;BME280;54027;50.786;7.058;2022-12-04T11:13:29;101177.06;;;2.84;76.83
67109;BME280;54027;50.786;7.058;2022-12-04T11:15:56;101165.28;;;2.89;77.11
67109;BME280;54027;50.786;7.058;2022-12-04T11:18:32;101168.75;;;2.91;76.78
67109;BME280;54027;50.786;7.058;2022-12-04T11:23:34;101172.16;;;2.91;76.85
67109;BME280;54027;50.786;7.058;2022-12-04T11:26:05;101177.28;;;2.91;76.38
67109;BME280;54027;50.786;7.058;2022-12-04T11:28:31;101174.53;;;2.85;77.46
67109;BME280;54027;50.786;7.058;2022-12-04T11:30:59;101176.03;;;2.79;77.68
67109;BME280;54027;50.786;7.058;2022-12-04T11:33:44;101172.78;;;2.83;77.67
67109;BME280;54027;50.786;7.058;2022-12-04T11:36:34;101161.84;;;2.87;77.85
67109;BME280;54027;50.786;7.058;2022-12-04T11:41:39;101170.41;;;2.89;77.39
67109;BME280;54027;50.786;7.058;2022-12-04T11:44:06;101163.53;;;2.86;77.18
67109;BME280;54027;50.786;7.058;2022-12-04T11:46:51;101163.38;;;2.82;77.57
67109;BME280;54027;50.786;7.058;2022-12-04T11:49:21;101172.78;;;2.83;77.99
67109;BME280;54027;50.786;7.058;2022-12-04T11:57:15;101166.94;;;2.87;78.87
67109;BME280;54027;50.786;7.058;2022-12-04T12:16:17;101158.06;;;3.04;78.06
67109;BME280;54027;50.786;7.058;2022-12-04T12:21:30;101159.06;;;3.09;78.01
67109;BME280;54027;50.786;7.058;2022-12-04T12:26:55;101159.13;;;3.12;78.42
67109;BME280;54027;50.786;7.058;2022-12-04T12:29:46;101155.06;;;3.19;77.69
67109;BME280;54027;50.786;7.058;2022-12-04T12:34:59;101144.13;;;3.23;77.31
67109;BME280;54027;50.786;7.058;2022-12-04T12:37:40;101138.19;;;3.24;77.46
67109;BME280;54027;50.786;7.058;2022-12-04T12:43:14;101134.66;;;3.20;77.29
67109;BME280;54027;50.786;7.058;2022-12-04T12:46:11;101127.78;;;3.18;77.78
67109;BME280;54027;50.786;7.058;2022-12-04T12:48:56;101125.25;;;3.18;77.44
67109;BME280;54027;50.786;7.058;2022-12-04T12:51:26;101129.47;;;3.17;77.59
67109;BME280;54027;50.786;7.058;2022-12-04T12:53:57;101133.75;;;3.17;77.26
67109;BME280;54027;50.786;7.058;2022-12-04T12:56:34;101130.25;;;3.15;77.50
67109;BME280;54027;50.786;7.058;2022-12-04T12:59:04;101130.25;;;3.15;78.13
67109;BME280;54027;50.786;7.058;2022-12-04T13:01:39;101131.06;;;3.12;78.14
67109;BME280;54027;50.786;7.058;2022-12-04T13:06:53;101121.72;;;3.14;77.74
67109;BME280;54027;50.786;7.058;2022-12-04T13:09:26;101114.91;;;3.13;78.06
67109;BME280;54027;50.786;7.058;2022-12-04T13:11:59;101106.38;;;3.13;78.51
67109;BME280;54027;50.786;7.058;2022-12-04T13:14:26;101114.03;;;3.13;78.18
67109;BME280;54027;50.786;7.058;2022-12-04T13:16:58;101107.16;;;3.10;78.03
67109;BME280;54027;50.786;7.058;2022-12-04T13:19:28;101106.38;;;3.13;78.22
67109;BME280;54027;50.786;7.058;2022-12-04T13:30:19;101089.47;;;3.16;78.76
67109;BME280;54027;50.786;7.058;2022-12-04T13:40:55;101108.16;;;3.15;79.85
67109;BME280;54027;50.786;7.058;2022-12-04T13:43:35;101112.47;;;3.18;79.92
67109;BME280;54027;50.786;7.058;2022-12-04T13:46:07;101105.75;;;3.21;79.12
67109;BME280;54027;50.786;7.058;2022-12-04T13:51:05;101109.22;;;3.23;78.99
67109;BME280;54027;50.786;7.058;2022-12-04T13:53:36;101104.16;;;3.25;79.31
67109;BME280;54027;50.786;7.058;2022-12-04T13:56:03;101116.94;;;3.25;79.46
67109;BME280;54027;50.786;7.058;2022-12-04T13:58:31;101112.59;;;3.22;79.30
67109;BME280;54027;50.786;7.058;2022-12-04T14:01:21;101110.94;;;3.23;79.44
67109;BME280;54027;50.786;7.058;2022-12-04T14:03:50;101104.09;;;3.23;79.45
67109;BME280;54027;50.786;7.058;2022-12-04T14:06:23;101092.19;;;3.24;79.35
67109;BME280;54027;50.786;7.058;2022-12-04T14:08:57;101085.38;;;3.23;79.61
67109;BME280;54027;50.786;7.058;2022-12-04T14:11:25;101081.88;;;3.19;79.41
67109;BME280;54027;50.786;7.058;2022-12-04T14:13:56;101092.09;;;3.19;80.23
67109;BME280;54027;50.786;7.058;2022-12-04T14:16:35;101100.63;;;3.20;80.58
67109;BME280;54027;50.786;7.058;2022-12-04T14:19:03;101092.97;;;3.20;80.12
67109;BME280;54027;50.786;7.058;2022-12-04T14:24:14;101090.28;;;3.15;80.57
67109;BME280;54027;50.786;7.058;2022-12-04T14:26:48;101087.78;;;3.17;80.81
67109;BME280;54027;50.786;7.058;2022-12-04T14:29:48;101087.78;;;3.18;80.63
67109;BME280;54027;50.786;7.058;2022-12-04T14:32:21;101091.22;;;3.19;80.80
67109;BME280;54027;50.786;7.058;2022-12-04T14:34:48;101092.97;;;3.20;80.50
67109;BME280;54027;50.786;7.058;2022-12-04T14:37:35;101089.53;;;3.19;80.02
67109;BME280;54027;50.786;7.058;2022-12-04T14:40:03;101092.13;;;3.21;80.12
67109;BME280;54027;50.786;7.058;2022-12-04T14:42:40;101093.03;;;3.23;80.21
67109;BME280;54027;50.786;7.058;2022-12-04T14:58:37;101082.13;;;3.30;80.77
67109;BME280;54027;50.786;7.058;2022-12-04T15:01:06;101080.44;;;3.29;80.05
67109;BME280;54027;50.786;7.058;2022-12-04T15:03:45;101081.25;;;3.28;80.53
67109;BME280;54027;50.786;7.058;2022-12-04T15:06:23;101084.66;;;3.28;80.38
67109;BME280;54027;50.786;7.058;2022-12-04T15:08:53;101088.94;;;3.29;80.88
67109;BME280;54027;50.786;7.058;2022-12-04T15:11:53;101079.56;;;3.28;80.85
67109;BME280;54027;50.786;7.058;2022-12-04T15:14:42;101078.72;;;3.29;81.04
67109;BME280;54027;50.786;7.058;2022-12-04T15:17:09;101080.38;;;3.27;80.51
67109;BME280;54027;50.786;7.058;2022-12-04T15:19:35;101078.69;;;3.28;81.01
67109;BME280;54027;50.786;7.058;2022-12-04T15:22:02;101083.81;;;3.29;80.90
67109;BME280;54027;50.786;7.058;2022-12-04T15:24:31;101091.41;;;3.26;80.19